Weather at Nethershields Farm Airstrip

Public forecast

Using degrees Celsius for public forecast. Weather courtesy of forecast.io.

Closest aviation weather report (METAR) to Nethershields Farm Airstrip

Closest report is Glasgow International Airport, 15.4 nm (28.5 km) NW.

2024/05/30 21:20 (retrieved 14 minutes ago)

EGPF 302120Z AUTO 30008KT 9999 FEW048 13/09 Q1019

Closest aviation forecast (TAF) to Nethershields Farm Airstrip

Closest forecast is Glasgow International Airport, 15.4 nm (28.5 km) NW.

2024/05/30 18:00 (retrieved 4 hours ago)

TAF EGPF 301657Z 3018/3118 31008KT 9999 FEW035 PROB30 3100/3106 8000